sensor_id;sensor_type;location;lat;lon;timestamp;P1;durP1;ratioP1;P2;durP2;ratioP2
40847;SDS011;26570;50.962;5.340;2022-11-23T00:01:16;12.73;;;0.40;;
40847;SDS011;26570;50.962;5.340;2022-11-23T00:04:04;9.90;;;0.93;;
40847;SDS011;26570;50.962;5.340;2022-11-23T00:06:55;5.77;;;0.50;;
40847;SDS011;26570;50.962;5.340;2022-11-23T00:09:41;10.90;;;0.60;;
40847;SDS011;26570;50.962;5.340;2022-11-23T00:12:27;13.07;;;0.90;;
40847;SDS011;26570;50.962;5.340;2022-11-23T00:15:14;14.07;;;0.60;;
40847;SDS011;26570;50.962;5.340;2022-11-23T00:17:59;19.37;;;0.83;;
40847;SDS011;26570;50.962;5.340;2022-11-23T00:20:46;12.47;;;0.67;;
40847;SDS011;26570;50.962;5.340;2022-11-23T00:23:31;10.50;;;0.57;;
40847;SDS011;26570;50.962;5.340;2022-11-23T00:26:16;12.83;;;0.90;;
40847;SDS011;26570;50.962;5.340;2022-11-23T00:29:02;8.10;;;0.60;;
40847;SDS011;26570;50.962;5.340;2022-11-23T00:31:49;8.00;;;0.40;;
40847;SDS011;26570;50.962;5.340;2022-11-23T00:34:34;12.57;;;0.50;;
40847;SDS011;26570;50.962;5.340;2022-11-23T00:37:19;7.80;;;0.50;;
40847;SDS011;26570;50.962;5.340;2022-11-23T00:40:05;3.30;;;0.53;;
40847;SDS011;26570;50.962;5.340;2022-11-23T00:42:52;5.33;;;0.40;;
40847;SDS011;26570;50.962;5.340;2022-11-23T00:45:37;6.97;;;0.50;;
40847;SDS011;26570;50.962;5.340;2022-11-23T00:48:23;7.50;;;0.40;;
40847;SDS011;26570;50.962;5.340;2022-11-23T00:51:10;7.63;;;0.50;;
40847;SDS011;26570;50.962;5.340;2022-11-23T00:53:57;5.47;;;0.50;;
40847;SDS011;26570;50.962;5.340;2022-11-23T00:57:25;7.87;;;0.60;;
40847;SDS011;26570;50.962;5.340;2022-11-23T01:00:11;7.47;;;0.60;;
40847;SDS011;26570;50.962;5.340;2022-11-23T01:02:56;8.93;;;0.50;;
40847;SDS011;26570;50.962;5.340;2022-11-23T01:05:41;5.73;;;0.50;;
40847;SDS011;26570;50.962;5.340;2022-11-23T01:08:27;10.63;;;0.50;;
40847;SDS011;26570;50.962;5.340;2022-11-23T01:11:13;8.30;;;0.80;;
40847;SDS011;26570;50.962;5.340;2022-11-23T01:13:59;5.80;;;0.40;;
40847;SDS011;26570;50.962;5.340;2022-11-23T01:16:45;9.93;;;0.53;;
40847;SDS011;26570;50.962;5.340;2022-11-23T01:22:53;7.20;;;0.50;;
40847;SDS011;26570;50.962;5.340;2022-11-23T01:26:02;6.47;;;0.40;;
40847;SDS011;26570;50.962;5.340;2022-11-23T02:16:04;12.80;;;0.80;;
40847;SDS011;26570;50.962;5.340;2022-11-23T02:18:49;16.63;;;0.70;;
40847;SDS011;26570;50.962;5.340;2022-11-23T02:21:35;12.57;;;0.93;;
40847;SDS011;26570;50.962;5.340;2022-11-23T02:24:29;15.33;;;0.70;;
40847;SDS011;26570;50.962;5.340;2022-11-23T02:27:19;12.27;;;0.57;;
40847;SDS011;26570;50.962;5.340;2022-11-23T02:30:18;15.27;;;0.73;;
40847;SDS011;26570;50.962;5.340;2022-11-23T02:33:03;23.33;;;1.57;;
40847;SDS011;26570;50.962;5.340;2022-11-23T02:35:51;16.87;;;0.63;;
40847;SDS011;26570;50.962;5.340;2022-11-23T02:38:38;16.33;;;1.10;;
40847;SDS011;26570;50.962;5.340;2022-11-23T02:41:24;15.20;;;0.80;;
40847;SDS011;26570;50.962;5.340;2022-11-23T02:44:30;15.83;;;0.90;;
40847;SDS011;26570;50.962;5.340;2022-11-23T02:47:19;16.43;;;0.80;;
40847;SDS011;26570;50.962;5.340;2022-11-23T02:50:17;25.67;;;1.20;;
40847;SDS011;26570;50.962;5.340;2022-11-23T03:11:28;23.80;;;1.00;;
40847;SDS011;26570;50.962;5.340;2022-11-23T03:14:13;19.50;;;1.53;;
40847;SDS011;26570;50.962;5.340;2022-11-23T03:16:59;18.33;;;1.07;;
40847;SDS011;26570;50.962;5.340;2022-11-23T03:19:44;14.00;;;0.70;;
40847;SDS011;26570;50.962;5.340;2022-11-23T03:43:44;14.90;;;0.80;;
40847;SDS011;26570;50.962;5.340;2022-11-23T03:46:41;11.63;;;0.70;;
40847;SDS011;26570;50.962;5.340;2022-11-23T03:49:30;9.93;;;0.60;;
40847;SDS011;26570;50.962;5.340;2022-11-23T03:52:16;11.57;;;0.80;;
40847;SDS011;26570;50.962;5.340;2022-11-23T03:57:50;17.87;;;0.90;;
40847;SDS011;26570;50.962;5.340;2022-11-23T04:06:22;17.90;;;1.23;;
40847;SDS011;26570;50.962;5.340;2022-11-23T04:09:19;18.23;;;1.13;;
40847;SDS011;26570;50.962;5.340;2022-11-23T04:12:33;17.50;;;0.80;;
40847;SDS011;26570;50.962;5.340;2022-11-23T04:15:18;13.47;;;0.70;;
40847;SDS011;26570;50.962;5.340;2022-11-23T04:18:05;8.60;;;0.67;;
40847;SDS011;26570;50.962;5.340;2022-11-23T04:21:10;18.10;;;0.70;;
40847;SDS011;26570;50.962;5.340;2022-11-23T04:27:37;18.67;;;0.67;;
40847;SDS011;26570;50.962;5.340;2022-11-23T04:47:21;17.00;;;0.80;;
40847;SDS011;26570;50.962;5.340;2022-11-23T04:50:27;13.97;;;0.53;;
40847;SDS011;26570;50.962;5.340;2022-11-23T04:53:23;14.23;;;0.80;;
40847;SDS011;26570;50.962;5.340;2022-11-23T05:05:39;16.90;;;1.40;;
40847;SDS011;26570;50.962;5.340;2022-11-23T05:08:30;17.77;;;0.80;;
40847;SDS011;26570;50.962;5.340;2022-11-23T05:15:36;14.63;;;0.98;;
40847;SDS011;26570;50.962;5.340;2022-11-23T06:32:06;19.93;;;0.80;;
40847;SDS011;26570;50.962;5.340;2022-11-23T06:44:45;11.90;;;0.80;;
40847;SDS011;26570;50.962;5.340;2022-11-23T06:47:31;16.80;;;1.63;;
40847;SDS011;26570;50.962;5.340;2022-11-23T07:02:59;13.77;;;0.60;;
40847;SDS011;26570;50.962;5.340;2022-11-23T07:05:47;15.37;;;1.10;;
40847;SDS011;26570;50.962;5.340;2022-11-23T07:16:20;18.13;;;0.80;;
40847;SDS011;26570;50.962;5.340;2022-11-23T07:19:05;15.80;;;0.60;;
40847;SDS011;26570;50.962;5.340;2022-11-23T07:21:51;14.40;;;1.07;;
40847;SDS011;26570;50.962;5.340;2022-11-23T07:24:35;15.07;;;0.60;;
40847;SDS011;26570;50.962;5.340;2022-11-23T07:27:20;11.50;;;0.87;;
40847;SDS011;26570;50.962;5.340;2022-11-23T07:30:04;19.37;;;0.93;;
40847;SDS011;26570;50.962;5.340;2022-11-23T07:32:49;13.67;;;1.07;;
40847;SDS011;26570;50.962;5.340;2022-11-23T07:35:34;13.30;;;0.50;;
40847;SDS011;26570;50.962;5.340;2022-11-23T07:38:19;12.03;;;0.60;;
40847;SDS011;26570;50.962;5.340;2022-11-23T07:41:04;9.47;;;0.70;;
40847;SDS011;26570;50.962;5.340;2022-11-23T07:43:59;24.47;;;1.07;;
40847;SDS011;26570;50.962;5.340;2022-11-23T07:46:45;16.40;;;1.00;;
40847;SDS011;26570;50.962;5.340;2022-11-23T07:49:30;15.63;;;0.70;;
40847;SDS011;26570;50.962;5.340;2022-11-23T07:52:15;20.47;;;1.10;;
40847;SDS011;26570;50.962;5.340;2022-11-23T07:54:59;20.23;;;0.77;;
40847;SDS011;26570;50.962;5.340;2022-11-23T07:57:44;16.97;;;1.47;;
40847;SDS011;26570;50.962;5.340;2022-11-23T08:00:29;16.73;;;0.77;;
40847;SDS011;26570;50.962;5.340;2022-11-23T08:03:13;19.17;;;0.90;;
40847;SDS011;26570;50.962;5.340;2022-11-23T08:05:58;16.03;;;0.90;;
40847;SDS011;26570;50.962;5.340;2022-11-23T08:08:43;19.93;;;0.90;;
40847;SDS011;26570;50.962;5.340;2022-11-23T08:11:28;16.67;;;1.00;;
40847;SDS011;26570;50.962;5.340;2022-11-23T08:14:13;19.93;;;1.63;;
40847;SDS011;26570;50.962;5.340;2022-11-23T08:16:57;12.97;;;0.80;;
40847;SDS011;26570;50.962;5.340;2022-11-23T08:19:42;16.37;;;0.80;;
40847;SDS011;26570;50.962;5.340;2022-11-23T08:22:27;16.87;;;1.00;;
40847;SDS011;26570;50.962;5.340;2022-11-23T08:25:11;14.20;;;0.70;;
40847;SDS011;26570;50.962;5.340;2022-11-23T08:28:00;14.40;;;0.97;;
40847;SDS011;26570;50.962;5.340;2022-11-23T08:30:46;23.03;;;0.60;;
40847;SDS011;26570;50.962;5.340;2022-11-23T08:33:32;22.57;;;1.63;;
40847;SDS011;26570;50.962;5.340;2022-11-23T08:36:16;15.33;;;0.80;;
40847;SDS011;26570;50.962;5.340;2022-11-23T08:39:00;16.27;;;0.77;;
40847;SDS011;26570;50.962;5.340;2022-11-23T08:41:45;17.70;;;1.37;;
40847;SDS011;26570;50.962;5.340;2022-11-23T08:44:29;17.43;;;0.70;;
40847;SDS011;26570;50.962;5.340;2022-11-23T08:47:14;12.97;;;0.80;;
40847;SDS011;26570;50.962;5.340;2022-11-23T08:49:59;19.20;;;0.70;;
40847;SDS011;26570;50.962;5.340;2022-11-23T08:52:44;13.03;;;0.60;;
40847;SDS011;26570;50.962;5.340;2022-11-23T08:55:29;19.27;;;0.70;;
40847;SDS011;26570;50.962;5.340;2022-11-23T08:58:14;10.07;;;0.60;;
40847;SDS011;26570;50.962;5.340;2022-11-23T09:00:58;13.67;;;0.60;;
40847;SDS011;26570;50.962;5.340;2022-11-23T09:03:43;11.93;;;0.60;;
40847;SDS011;26570;50.962;5.340;2022-11-23T09:06:31;10.07;;;0.50;;
40847;SDS011;26570;50.962;5.340;2022-11-23T09:09:16;9.00;;;0.50;;
40847;SDS011;26570;50.962;5.340;2022-11-23T09:12:01;8.20;;;0.50;;
40847;SDS011;26570;50.962;5.340;2022-11-23T09:14:46;14.47;;;0.83;;
40847;SDS011;26570;50.962;5.340;2022-11-23T09:17:31;13.93;;;0.57;;
40847;SDS011;26570;50.962;5.340;2022-11-23T09:20:16;15.33;;;0.53;;
40847;SDS011;26570;50.962;5.340;2022-11-23T09:23:01;10.20;;;0.50;;
40847;SDS011;26570;50.962;5.340;2022-11-23T09:25:45;14.67;;;0.60;;
40847;SDS011;26570;50.962;5.340;2022-11-23T09:28:31;16.53;;;0.60;;
40847;SDS011;26570;50.962;5.340;2022-11-23T09:31:16;13.27;;;0.50;;
40847;SDS011;26570;50.962;5.340;2022-11-23T09:34:03;15.57;;;0.80;;
40847;SDS011;26570;50.962;5.340;2022-11-23T09:36:59;10.77;;;0.50;;
40847;SDS011;26570;50.962;5.340;2022-11-23T09:39:43;15.93;;;0.50;;
40847;SDS011;26570;50.962;5.340;2022-11-23T09:48:32;13.97;;;0.60;;
40847;SDS011;26570;50.962;5.340;2022-11-23T09:51:20;13.73;;;0.60;;
40847;SDS011;26570;50.962;5.340;2022-11-23T09:54:16;13.07;;;0.40;;
40847;SDS011;26570;50.962;5.340;2022-11-23T09:57:08;8.43;;;0.40;;
40847;SDS011;26570;50.962;5.340;2022-11-23T10:00:02;10.87;;;0.43;;
40847;SDS011;26570;50.962;5.340;2022-11-23T10:02:49;7.50;;;0.50;;
40847;SDS011;26570;50.962;5.340;2022-11-23T10:05:35;7.63;;;0.30;;
40847;SDS011;26570;50.962;5.340;2022-11-23T10:08:29;8.27;;;0.40;;
40847;SDS011;26570;50.962;5.340;2022-11-23T10:20:46;6.47;;;0.40;;
40847;SDS011;26570;50.962;5.340;2022-11-23T10:23:51;7.87;;;0.43;;
40847;SDS011;26570;50.962;5.340;2022-11-23T10:26:40;9.53;;;0.37;;
40847;SDS011;26570;50.962;5.340;2022-11-23T10:29:30;9.73;;;0.30;;
40847;SDS011;26570;50.962;5.340;2022-11-23T10:35:27;5.23;;;0.33;;
40847;SDS011;26570;50.962;5.340;2022-11-23T10:38:17;3.77;;;0.20;;
40847;SDS011;26570;50.962;5.340;2022-11-23T10:41:05;3.07;;;0.20;;
40847;SDS011;26570;50.962;5.340;2022-11-23T10:47:11;3.10;;;0.30;;
40847;SDS011;26570;50.962;5.340;2022-11-23T10:50:32;3.90;;;0.30;;
40847;SDS011;26570;50.962;5.340;2022-11-23T10:53:31;3.27;;;0.30;;
40847;SDS011;26570;50.962;5.340;2022-11-23T10:56:20;4.03;;;0.30;;
40847;SDS011;26570;50.962;5.340;2022-11-23T11:02:22;3.80;;;0.20;;
40847;SDS011;26570;50.962;5.340;2022-11-23T11:08:18;4.50;;;0.20;;
40847;SDS011;26570;50.962;5.340;2022-11-23T11:11:09;7.00;;;0.40;;
40847;SDS011;26570;50.962;5.340;2022-11-23T11:14:15;5.93;;;0.30;;
40847;SDS011;26570;50.962;5.340;2022-11-23T11:17:09;3.07;;;0.20;;
40847;SDS011;26570;50.962;5.340;2022-11-23T11:23:15;4.57;;;0.30;;
40847;SDS011;26570;50.962;5.340;2022-11-23T11:26:07;3.77;;;0.63;;
40847;SDS011;26570;50.962;5.340;2022-11-23T11:29:07;5.90;;;0.30;;
40847;SDS011;26570;50.962;5.340;2022-11-23T11:35:36;7.33;;;0.73;;
40847;SDS011;26570;50.962;5.340;2022-11-23T11:38:32;3.53;;;0.20;;
40847;SDS011;26570;50.962;5.340;2022-11-23T11:41:19;7.77;;;0.37;;
40847;SDS011;26570;50.962;5.340;2022-11-23T11:44:11;3.77;;;0.20;;
40847;SDS011;26570;50.962;5.340;2022-11-23T11:47:12;5.73;;;0.30;;
40847;SDS011;26570;50.962;5.340;2022-11-23T11:50:26;4.47;;;0.20;;
40847;SDS011;26570;50.962;5.340;2022-11-23T11:53:16;3.67;;;0.20;;
40847;SDS011;26570;50.962;5.340;2022-11-23T11:56:57;5.47;;;0.20;;
40847;SDS011;26570;50.962;5.340;2022-11-23T11:59:32;6.97;;;0.20;;
40847;SDS011;26570;50.962;5.340;2022-11-23T12:02:26;7.10;;;0.30;;
40847;SDS011;26570;50.962;5.340;2022-11-23T12:05:24;9.07;;;0.37;;
40847;SDS011;26570;50.962;5.340;2022-11-23T12:08:38;6.13;;;0.33;;
40847;SDS011;26570;50.962;5.340;2022-11-23T12:11:30;3.67;;;0.20;;
40847;SDS011;26570;50.962;5.340;2022-11-23T12:14:26;5.30;;;0.33;;
40847;SDS011;26570;50.962;5.340;2022-11-23T12:17:32;2.67;;;0.30;;
40847;SDS011;26570;50.962;5.340;2022-11-23T12:23:33;3.00;;;0.20;;
40847;SDS011;26570;50.962;5.340;2022-11-23T12:32:34;2.00;;;0.10;;
40847;SDS011;26570;50.962;5.340;2022-11-23T12:51:29;2.67;;;0.20;;
40847;SDS011;26570;50.962;5.340;2022-11-23T12:57:50;2.80;;;0.30;;
40847;SDS011;26570;50.962;5.340;2022-11-23T13:00:44;2.07;;;0.13;;
40847;SDS011;26570;50.962;5.340;2022-11-23T13:19:35;2.13;;;0.20;;
40847;SDS011;26570;50.962;5.340;2022-11-23T13:22:38;4.70;;;0.20;;
40847;SDS011;26570;50.962;5.340;2022-11-23T13:25:27;1.80;;;0.20;;
40847;SDS011;26570;50.962;5.340;2022-11-23T13:28:29;4.90;;;0.30;;
40847;SDS011;26570;50.962;5.340;2022-11-23T13:34:00;1.83;;;0.20;;
40847;SDS011;26570;50.962;5.340;2022-11-23T13:36:59;3.13;;;0.20;;
40847;SDS011;26570;50.962;5.340;2022-11-23T13:40:03;3.13;;;0.20;;
40847;SDS011;26570;50.962;5.340;2022-11-23T13:42:53;1.27;;;0.20;;
40847;SDS011;26570;50.962;5.340;2022-11-23T13:45:41;2.73;;;0.20;;
40847;SDS011;26570;50.962;5.340;2022-11-23T13:48:26;1.90;;;0.30;;
40847;SDS011;26570;50.962;5.340;2022-11-23T13:51:11;1.73;;;0.20;;
40847;SDS011;26570;50.962;5.340;2022-11-23T13:54:03;2.27;;;0.30;;
40847;SDS011;26570;50.962;5.340;2022-11-23T13:57:00;2.42;;;0.20;;
40847;SDS011;26570;50.962;5.340;2022-11-23T13:59:48;5.70;;;0.30;;
40847;SDS011;26570;50.962;5.340;2022-11-23T14:02:33;3.03;;;0.33;;
40847;SDS011;26570;50.962;5.340;2022-11-23T14:05:33;1.83;;;0.30;;
40847;SDS011;26570;50.962;5.340;2022-11-23T14:08:39;1.73;;;0.30;;
40847;SDS011;26570;50.962;5.340;2022-11-23T14:11:25;4.03;;;0.37;;
40847;SDS011;26570;50.962;5.340;2022-11-23T14:14:14;4.43;;;0.60;;
40847;SDS011;26570;50.962;5.340;2022-11-23T14:30:04;7.47;;;0.50;;
40847;SDS011;26570;50.962;5.340;2022-11-23T14:36:22;5.40;;;0.40;;
40847;SDS011;26570;50.962;5.340;2022-11-23T14:42:24;3.00;;;0.40;;
40847;SDS011;26570;50.962;5.340;2022-11-23T14:45:12;6.77;;;0.43;;
40847;SDS011;26570;50.962;5.340;2022-11-23T14:54:06;6.50;;;0.30;;
40847;SDS011;26570;50.962;5.340;2022-11-23T14:56:53;7.20;;;0.60;;
40847;SDS011;26570;50.962;5.340;2022-11-23T14:59:43;3.93;;;0.40;;
40847;SDS011;26570;50.962;5.340;2022-11-23T15:05:20;3.97;;;0.40;;
40847;SDS011;26570;50.962;5.340;2022-11-23T15:08:16;4.23;;;0.50;;
40847;SDS011;26570;50.962;5.340;2022-11-23T15:11:16;5.87;;;0.90;;
40847;SDS011;26570;50.962;5.340;2022-11-23T15:14:18;5.83;;;0.40;;
40847;SDS011;26570;50.962;5.340;2022-11-23T15:17:14;5.60;;;0.47;;
40847;SDS011;26570;50.962;5.340;2022-11-23T15:20:01;2.37;;;0.40;;
40847;SDS011;26570;50.962;5.340;2022-11-23T15:22:48;3.37;;;0.47;;
40847;SDS011;26570;50.962;5.340;2022-11-23T15:25:32;4.90;;;0.40;;
40847;SDS011;26570;50.962;5.340;2022-11-23T15:28:27;4.20;;;0.40;;
40847;SDS011;26570;50.962;5.340;2022-11-23T15:31:29;4.63;;;0.40;;
40847;SDS011;26570;50.962;5.340;2022-11-23T15:34:20;4.60;;;0.50;;
40847;SDS011;26570;50.962;5.340;2022-11-23T15:37:16;5.28;;;0.80;;
40847;SDS011;26570;50.962;5.340;2022-11-23T15:40:01;2.10;;;0.57;;
40847;SDS011;26570;50.962;5.340;2022-11-23T15:42:50;5.07;;;0.50;;
40847;SDS011;26570;50.962;5.340;2022-11-23T15:48:33;2.53;;;0.50;;
40847;SDS011;26570;50.962;5.340;2022-11-23T15:51:27;4.73;;;0.50;;
40847;SDS011;26570;50.962;5.340;2022-11-23T15:54:22;2.70;;;0.43;;
40847;SDS011;26570;50.962;5.340;2022-11-23T16:00:03;4.27;;;0.53;;
40847;SDS011;26570;50.962;5.340;2022-11-23T16:02:50;4.77;;;0.50;;
40847;SDS011;26570;50.962;5.340;2022-11-23T16:05:36;5.47;;;0.80;;
40847;SDS011;26570;50.962;5.340;2022-11-23T16:08:23;7.67;;;0.80;;
40847;SDS011;26570;50.962;5.340;2022-11-23T16:14:12;7.53;;;0.60;;
40847;SDS011;26570;50.962;5.340;2022-11-23T16:17:04;3.77;;;0.70;;
40847;SDS011;26570;50.962;5.340;2022-11-23T16:20:12;3.30;;;0.80;;
40847;SDS011;26570;50.962;5.340;2022-11-23T16:22:59;3.93;;;0.60;;
40847;SDS011;26570;50.962;5.340;2022-11-23T16:25:44;3.13;;;0.60;;
40847;SDS011;26570;50.962;5.340;2022-11-23T16:28:39;5.83;;;0.43;;
40847;SDS011;26570;50.962;5.340;2022-11-23T16:31:40;3.17;;;0.60;;
40847;SDS011;26570;50.962;5.340;2022-11-23T16:34:34;4.90;;;0.60;;
40847;SDS011;26570;50.962;5.340;2022-11-23T16:37:20;4.87;;;0.53;;
40847;SDS011;26570;50.962;5.340;2022-11-23T16:40:06;2.10;;;0.50;;
40847;SDS011;26570;50.962;5.340;2022-11-23T16:42:51;3.43;;;0.70;;
40847;SDS011;26570;50.962;5.340;2022-11-23T16:45:41;12.97;;;4.47;;
40847;SDS011;26570;50.962;5.340;2022-11-23T16:51:21;5.60;;;0.70;;
40847;SDS011;26570;50.962;5.340;2022-11-23T16:54:07;5.10;;;0.70;;
40847;SDS011;26570;50.962;5.340;2022-11-23T16:56:52;5.43;;;0.80;;
40847;SDS011;26570;50.962;5.340;2022-11-23T16:59:37;3.80;;;0.70;;
40847;SDS011;26570;50.962;5.340;2022-11-23T17:02:22;4.40;;;0.73;;
40847;SDS011;26570;50.962;5.340;2022-11-23T17:05:18;8.67;;;1.33;;
40847;SDS011;26570;50.962;5.340;2022-11-23T17:08:06;5.53;;;1.03;;
40847;SDS011;26570;50.962;5.340;2022-11-23T17:10:52;5.13;;;0.77;;
40847;SDS011;26570;50.962;5.340;2022-11-23T17:13:36;3.93;;;0.83;;
40847;SDS011;26570;50.962;5.340;2022-11-23T17:16:22;10.03;;;3.23;;
40847;SDS011;26570;50.962;5.340;2022-11-23T17:19:13;19.93;;;6.37;;
40847;SDS011;26570;50.962;5.340;2022-11-23T17:21:59;4.63;;;1.30;;
40847;SDS011;26570;50.962;5.340;2022-11-23T17:24:44;4.63;;;1.00;;
40847;SDS011;26570;50.962;5.340;2022-11-23T17:27:31;4.40;;;0.80;;
40847;SDS011;26570;50.962;5.340;2022-11-23T17:30:20;8.00;;;1.00;;
40847;SDS011;26570;50.962;5.340;2022-11-23T17:33:07;6.17;;;1.30;;
40847;SDS011;26570;50.962;5.340;2022-11-23T17:35:55;6.10;;;1.47;;
40847;SDS011;26570;50.962;5.340;2022-11-23T17:38:42;6.27;;;1.10;;
40847;SDS011;26570;50.962;5.340;2022-11-23T17:41:30;5.70;;;1.43;;
40847;SDS011;26570;50.962;5.340;2022-11-23T17:44:15;6.20;;;1.20;;
40847;SDS011;26570;50.962;5.340;2022-11-23T17:47:01;5.30;;;1.77;;
40847;SDS011;26570;50.962;5.340;2022-11-23T17:49:46;9.70;;;1.30;;
40847;SDS011;26570;50.962;5.340;2022-11-23T17:52:31;12.33;;;1.27;;
40847;SDS011;26570;50.962;5.340;2022-11-23T17:55:17;8.83;;;1.10;;
40847;SDS011;26570;50.962;5.340;2022-11-23T17:58:02;9.40;;;1.20;;
40847;SDS011;26570;50.962;5.340;2022-11-23T18:00:48;8.47;;;1.33;;
40847;SDS011;26570;50.962;5.340;2022-11-23T18:03:33;9.73;;;1.63;;
40847;SDS011;26570;50.962;5.340;2022-11-23T18:06:19;9.83;;;1.80;;
40847;SDS011;26570;50.962;5.340;2022-11-23T18:09:07;8.10;;;1.33;;
40847;SDS011;26570;50.962;5.340;2022-11-23T18:11:54;9.23;;;1.20;;
40847;SDS011;26570;50.962;5.340;2022-11-23T18:14:39;8.70;;;2.07;;
40847;SDS011;26570;50.962;5.340;2022-11-23T18:17:24;14.00;;;1.80;;
40847;SDS011;26570;50.962;5.340;2022-11-23T18:20:09;11.13;;;1.40;;
40847;SDS011;26570;50.962;5.340;2022-11-23T18:22:55;10.20;;;1.07;;
40847;SDS011;26570;50.962;5.340;2022-11-23T18:25:40;10.57;;;1.30;;
40847;SDS011;26570;50.962;5.340;2022-11-23T18:28:26;11.43;;;1.83;;
40847;SDS011;26570;50.962;5.340;2022-11-23T18:31:11;15.30;;;1.37;;
40847;SDS011;26570;50.962;5.340;2022-11-23T18:33:56;16.63;;;1.37;;
40847;SDS011;26570;50.962;5.340;2022-11-23T18:36:41;13.07;;;1.20;;
40847;SDS011;26570;50.962;5.340;2022-11-23T18:39:27;10.70;;;1.10;;
40847;SDS011;26570;50.962;5.340;2022-11-23T18:42:12;10.73;;;1.20;;
40847;SDS011;26570;50.962;5.340;2022-11-23T18:44:57;16.43;;;1.00;;
40847;SDS011;26570;50.962;5.340;2022-11-23T18:47:41;12.23;;;1.10;;
40847;SDS011;26570;50.962;5.340;2022-11-23T18:50:26;11.47;;;1.30;;
40847;SDS011;26570;50.962;5.340;2022-11-23T18:53:11;18.73;;;1.90;;
40847;SDS011;26570;50.962;5.340;2022-11-23T18:56:03;9.13;;;1.03;;
40847;SDS011;26570;50.962;5.340;2022-11-23T18:58:50;20.88;;;1.35;;
40847;SDS011;26570;50.962;5.340;2022-11-23T19:01:35;17.80;;;1.90;;
40847;SDS011;26570;50.962;5.340;2022-11-23T19:04:20;17.80;;;1.90;;
40847;SDS011;26570;50.962;5.340;2022-11-23T19:07:05;24.67;;;2.37;;
40847;SDS011;26570;50.962;5.340;2022-11-23T19:09:51;17.37;;;2.03;;
40847;SDS011;26570;50.962;5.340;2022-11-23T19:12:35;26.67;;;2.00;;
40847;SDS011;26570;50.962;5.340;2022-11-23T19:15:21;20.37;;;2.27;;
40847;SDS011;26570;50.962;5.340;2022-11-23T19:18:06;22.60;;;1.37;;
40847;SDS011;26570;50.962;5.340;2022-11-23T19:20:51;14.07;;;1.40;;
40847;SDS011;26570;50.962;5.340;2022-11-23T19:23:36;16.93;;;2.03;;
40847;SDS011;26570;50.962;5.340;2022-11-23T19:26:21;13.90;;;1.17;;
40847;SDS011;26570;50.962;5.340;2022-11-23T19:29:07;26.00;;;1.90;;
40847;SDS011;26570;50.962;5.340;2022-11-23T19:31:52;19.27;;;1.87;;
40847;SDS011;26570;50.962;5.340;2022-11-23T19:34:38;21.73;;;1.50;;
40847;SDS011;26570;50.962;5.340;2022-11-23T19:37:23;20.63;;;1.80;;
40847;SDS011;26570;50.962;5.340;2022-11-23T19:40:09;20.53;;;1.70;;
40847;SDS011;26570;50.962;5.340;2022-11-23T19:42:55;23.53;;;2.07;;
40847;SDS011;26570;50.962;5.340;2022-11-23T19:45:40;17.90;;;2.30;;
40847;SDS011;26570;50.962;5.340;2022-11-23T19:48:25;28.87;;;2.80;;
40847;SDS011;26570;50.962;5.340;2022-11-23T19:51:13;22.80;;;2.00;;
40847;SDS011;26570;50.962;5.340;2022-11-23T19:53:59;21.67;;;1.70;;
40847;SDS011;26570;50.962;5.340;2022-11-23T19:56:45;27.73;;;1.97;;
40847;SDS011;26570;50.962;5.340;2022-11-23T19:59:33;21.03;;;2.03;;
40847;SDS011;26570;50.962;5.340;2022-11-23T20:02:22;22.93;;;2.07;;
40847;SDS011;26570;50.962;5.340;2022-11-23T20:05:08;20.77;;;2.00;;
40847;SDS011;26570;50.962;5.340;2022-11-23T20:07:56;21.17;;;2.97;;
40847;SDS011;26570;50.962;5.340;2022-11-23T20:10:41;22.60;;;2.40;;
40847;SDS011;26570;50.962;5.340;2022-11-23T20:13:26;25.57;;;1.90;;
40847;SDS011;26570;50.962;5.340;2022-11-23T20:16:12;20.73;;;1.97;;
40847;SDS011;26570;50.962;5.340;2022-11-23T20:18:59;24.67;;;1.40;;
40847;SDS011;26570;50.962;5.340;2022-11-23T20:21:50;22.83;;;2.43;;
40847;SDS011;26570;50.962;5.340;2022-11-23T20:24:36;21.87;;;1.70;;
40847;SDS011;26570;50.962;5.340;2022-11-23T20:27:21;23.90;;;1.80;;
40847;SDS011;26570;50.962;5.340;2022-11-23T20:30:06;25.93;;;2.63;;
40847;SDS011;26570;50.962;5.340;2022-11-23T20:32:51;21.70;;;2.37;;
40847;SDS011;26570;50.962;5.340;2022-11-23T20:35:36;19.90;;;2.57;;
40847;SDS011;26570;50.962;5.340;2022-11-23T20:38:21;19.17;;;2.07;;
40847;SDS011;26570;50.962;5.340;2022-11-23T20:41:19;24.90;;;2.20;;
40847;SDS011;26570;50.962;5.340;2022-11-23T20:44:11;21.30;;;3.30;;
40847;SDS011;26570;50.962;5.340;2022-11-23T20:46:57;18.20;;;1.77;;
40847;SDS011;26570;50.962;5.340;2022-11-23T20:49:42;35.93;;;4.43;;
40847;SDS011;26570;50.962;5.340;2022-11-23T20:52:27;29.67;;;2.50;;
40847;SDS011;26570;50.962;5.340;2022-11-23T20:55:11;24.10;;;2.10;;
40847;SDS011;26570;50.962;5.340;2022-11-23T20:57:59;19.97;;;1.70;;
40847;SDS011;26570;50.962;5.340;2022-11-23T21:00:44;22.70;;;1.77;;
40847;SDS011;26570;50.962;5.340;2022-11-23T21:03:29;26.57;;;2.03;;
40847;SDS011;26570;50.962;5.340;2022-11-23T21:06:20;19.67;;;2.07;;
40847;SDS011;26570;50.962;5.340;2022-11-23T21:09:07;29.77;;;2.57;;
40847;SDS011;26570;50.962;5.340;2022-11-23T21:11:54;28.87;;;2.30;;
40847;SDS011;26570;50.962;5.340;2022-11-23T21:14:57;26.73;;;2.92;;
40847;SDS011;26570;50.962;5.340;2022-11-23T21:17:42;22.30;;;2.07;;
40847;SDS011;26570;50.962;5.340;2022-11-23T21:20:27;21.30;;;2.03;;
40847;SDS011;26570;50.962;5.340;2022-11-23T21:23:12;25.20;;;1.40;;
40847;SDS011;26570;50.962;5.340;2022-11-23T21:26:00;27.23;;;2.50;;
40847;SDS011;26570;50.962;5.340;2022-11-23T21:28:49;17.87;;;1.53;;
40847;SDS011;26570;50.962;5.340;2022-11-23T21:31:34;25.77;;;1.10;;
40847;SDS011;26570;50.962;5.340;2022-11-23T21:34:23;25.17;;;1.67;;
40847;SDS011;26570;50.962;5.340;2022-11-23T21:37:10;27.93;;;1.90;;
40847;SDS011;26570;50.962;5.340;2022-11-23T21:39:57;25.73;;;1.37;;
40847;SDS011;26570;50.962;5.340;2022-11-23T21:42:42;27.33;;;1.60;;
40847;SDS011;26570;50.962;5.340;2022-11-23T21:45:27;25.00;;;1.50;;
40847;SDS011;26570;50.962;5.340;2022-11-23T21:48:12;25.77;;;1.53;;
40847;SDS011;26570;50.962;5.340;2022-11-23T21:50:58;29.00;;;1.70;;
40847;SDS011;26570;50.962;5.340;2022-11-23T21:53:48;23.37;;;1.53;;
40847;SDS011;26570;50.962;5.340;2022-11-23T21:56:33;19.50;;;1.97;;
40847;SDS011;26570;50.962;5.340;2022-11-23T21:59:18;24.40;;;1.83;;
40847;SDS011;26570;50.962;5.340;2022-11-23T22:02:03;15.63;;;1.20;;
40847;SDS011;26570;50.962;5.340;2022-11-23T22:04:49;30.07;;;2.37;;
40847;SDS011;26570;50.962;5.340;2022-11-23T22:07:34;26.33;;;1.43;;
40847;SDS011;26570;50.962;5.340;2022-11-23T22:10:20;21.17;;;1.30;;
40847;SDS011;26570;50.962;5.340;2022-11-23T22:13:04;25.70;;;1.60;;
40847;SDS011;26570;50.962;5.340;2022-11-23T22:15:49;24.93;;;1.40;;
40847;SDS011;26570;50.962;5.340;2022-11-23T22:18:34;23.33;;;1.50;;
40847;SDS011;26570;50.962;5.340;2022-11-23T22:21:19;24.30;;;1.27;;
40847;SDS011;26570;50.962;5.340;2022-11-23T22:24:06;18.80;;;1.20;;
40847;SDS011;26570;50.962;5.340;2022-11-23T22:26:58;32.80;;;1.83;;
40847;SDS011;26570;50.962;5.340;2022-11-23T22:29:43;16.30;;;1.00;;
40847;SDS011;26570;50.962;5.340;2022-11-23T22:32:27;17.00;;;0.87;;
40847;SDS011;26570;50.962;5.340;2022-11-23T22:35:12;28.70;;;1.50;;
40847;SDS011;26570;50.962;5.340;2022-11-23T22:37:57;24.00;;;1.33;;
40847;SDS011;26570;50.962;5.340;2022-11-23T22:40:45;26.70;;;2.07;;
40847;SDS011;26570;50.962;5.340;2022-11-23T22:43:30;22.60;;;1.30;;
40847;SDS011;26570;50.962;5.340;2022-11-23T22:46:16;21.70;;;1.50;;
40847;SDS011;26570;50.962;5.340;2022-11-23T22:49:02;20.27;;;1.30;;